Aviation Digital Data Service (ADDS)

Output produced by METARs form (0650 UTC 03 May 2016)
found at http://aviationweather.gov/adds/metars/
 
KLCH 030520Z 0306/0406 36010KT P6SM SCT015 BKN035 
     TEMPO 0306/0308 BKN015 
     FM031400 01010KT P6SM SCT040